Jobst Oldendorff — 9HA3736 — position and weather

sailwx.info

Track history (hours):
 
Tides and Currents Weather Stations Pressure Air Temp Water Temp Dewpoint Dewpoint Depression Visibility Wind Speed Wind Dir Waves Ship Positions

Jobst Oldendorff

Last reported at 2018-Jun-25 05:59 UTC. Time now 2018-Jun-25 06:03 UTC.
Position N 28°37' W 014°55'.

Length 200 m; draft 6.8 m.

Type: Cargo ship. MMSI: 229943000.

Date/timePositionNaut miles runAvg speedWind from/ knotsBaromVisibWave heightAir tempDewpointWater temp
2018-Jun-25 05:59N 28°37' W 014°55'613.3
2018-Jun-25 05:30N 28°42' W 014°51'813.3
2018-Jun-25 04:55N 28°48' W 014°45'613.1
2018-Jun-25 04:28N 28°53' W 014°41'713.0
2018-Jun-25 03:55N 28°59' W 014°36'613.1
2018-Jun-25 03:26N 29°04' W 014°32'  
2018-Jun-22 11:10N 36°57' W 001°22'312.9
2018-Jun-22 10:56N 36°58' W 001°18'812.9
2018-Jun-22 10:20N 37°03' W 001°11'512.9
2018-Jun-22 09:59N 37°06' W 001°06'10112.8
2018-Jun-22 02:05N 38°22' E 000°18'113.3
2018-Jun-22 02:00N 38°23' E 000°19'713.3
2018-Jun-22 01:30N 38°29' E 000°23'713.4
2018-Jun-22 00:58N 38°35' E 000°27'1612.8
2018-Jun-21 23:43N 38°49' E 000°37'412.3
2018-Jun-21 23:23N 38°53' E 000°38'512.5
2018-Jun-21 22:59N 38°58' E 000°39'1912.6
2018-Jun-21 21:30N 39°16' E 000°43'1912.7
2018-Jun-21 20:02N 39°34' E 000°48'012.7
2018-Jun-21 20:00N 39°35' E 000°48'712.9
2018-Jun-21 19:29N 39°42' E 000°49'6512.7
2018-Jun-21 14:23N 40°45' E 001°05'511.5
2018-Jun-21 13:58N 40°50' E 001°07'  
Track history (hours):
 
Tides and Currents Weather Stations Pressure Air Temp Water Temp Dewpoint Dewpoint Depression Visibility Wind Speed Wind Dir Waves Ship Positions

Jobst Oldendorff

Last reported at 2018-Jun-25 05:59 UTC. Time now 2018-Jun-25 06:03 UTC.
Position N 28°37' W 014°55'.

Length 200 m; draft 6.8 m.

Type: Cargo ship. MMSI: 229943000.

Date/timePositionNaut miles runAvg speedWind from/ knotsBaromVisibWave heightAir tempDewpointWater temp
2018-Jun-25 05:59N 28°37' W 014°55'613.3
2018-Jun-25 05:30N 28°42' W 014°51'813.3
2018-Jun-25 04:55N 28°48' W 014°45'613.1
2018-Jun-25 04:28N 28°53' W 014°41'713.0
2018-Jun-25 03:55N 28°59' W 014°36'613.1
2018-Jun-25 03:26N 29°04' W 014°32'  
2018-Jun-22 11:10N 36°57' W 001°22'312.9
2018-Jun-22 10:56N 36°58' W 001°18'812.9
2018-Jun-22 10:20N 37°03' W 001°11'512.9
2018-Jun-22 09:59N 37°06' W 001°06'10112.8
2018-Jun-22 02:05N 38°22' E 000°18'113.3
2018-Jun-22 02:00N 38°23' E 000°19'713.3
2018-Jun-22 01:30N 38°29' E 000°23'713.4
2018-Jun-22 00:58N 38°35' E 000°27'1612.8
2018-Jun-21 23:43N 38°49' E 000°37'412.3
2018-Jun-21 23:23N 38°53' E 000°38'512.5
2018-Jun-21 22:59N 38°58' E 000°39'1912.6
2018-Jun-21 21:30N 39°16' E 000°43'1912.7
2018-Jun-21 20:02N 39°34' E 000°48'012.7
2018-Jun-21 20:00N 39°35' E 000°48'712.9
2018-Jun-21 19:29N 39°42' E 000°49'6512.7
2018-Jun-21 14:23N 40°45' E 001°05'511.5
2018-Jun-21 13:58N 40°50' E 001°07'  

Dump ship's entire track history